createdAt,value
2022-11-16T00:00:39.145Z,87.32
2022-11-16T00:02:11.670Z,87.12
2022-11-16T00:03:43.778Z,87.47
2022-11-16T00:05:15.632Z,87.00
2022-11-16T00:06:49.177Z,87.52
2022-11-16T00:08:20.851Z,87.36
2022-11-16T00:09:52.470Z,87.08
2022-11-16T00:11:24.110Z,87.27
2022-11-16T00:12:55.714Z,87.27
2022-11-16T00:14:31.586Z,87.36
2022-11-16T00:16:06.564Z,87.53
2022-11-16T00:17:38.278Z,87.08
2022-11-16T00:19:11.524Z,87.63
2022-11-16T00:20:43.128Z,87.77
2022-11-16T00:22:14.738Z,87.81
2022-11-16T00:23:46.329Z,87.55
2022-11-16T00:25:18.001Z,87.18
2022-11-16T00:26:50.963Z,87.42
2022-11-16T00:28:22.595Z,87.81
2022-11-16T00:29:54.259Z,87.52
2022-11-16T00:31:27.284Z,87.36
2022-11-16T00:33:00.508Z,87.21
2022-11-16T00:34:32.137Z,87.57
2022-11-16T00:36:06.514Z,87.12
2022-11-16T00:37:38.146Z,87.81
2022-11-16T00:39:11.673Z,87.33
2022-11-16T00:40:43.308Z,87.43
2022-11-16T00:42:14.963Z,87.64
2022-11-16T00:43:46.780Z,87.88
2022-11-16T00:45:18.381Z,88.00
2022-11-16T00:46:51.351Z,87.79
2022-11-16T00:48:23.024Z,87.69
2022-11-16T00:49:54.920Z,88.11
2022-11-16T00:51:26.541Z,87.66
2022-11-16T00:52:58.192Z,87.85
2022-11-16T00:54:29.958Z,87.31
2022-11-16T00:56:02.469Z,87.54
2022-11-16T00:57:37.933Z,88.00
2022-11-16T00:59:09.966Z,87.60
2022-11-16T01:00:43.046Z,87.81
2022-11-16T01:02:16.098Z,87.66
2022-11-16T01:03:47.944Z,87.88
2022-11-16T01:05:19.814Z,87.32
2022-11-16T01:06:51.592Z,87.56
2022-11-16T01:08:23.222Z,87.26
2022-11-16T01:09:54.861Z,87.86
2022-11-16T01:11:45.283Z,87.83
2022-11-16T01:13:16.894Z,87.60
2022-11-16T01:14:49.197Z,87.75
2022-11-16T01:16:23.600Z,88.01
2022-11-16T01:17:57.173Z,87.77
2022-11-16T01:19:29.292Z,87.90
2022-11-16T01:21:00.902Z,88.15
2022-11-16T01:22:34.601Z,88.21
2022-11-16T01:24:06.557Z,87.81
2022-11-16T01:25:38.204Z,88.02
2022-11-16T01:27:09.993Z,88.22
2022-11-16T01:28:44.436Z,88.07
2022-11-16T01:30:17.642Z,88.99
2022-11-16T01:32:00.007Z,88.63
2022-11-16T01:33:33.337Z,88.62
2022-11-16T01:35:06.456Z,88.78
2022-11-16T01:36:39.277Z,89.34
2022-11-16T01:38:11.223Z,89.41
2022-11-16T01:39:43.963Z,89.21
2022-11-16T01:41:17.524Z,89.08
2022-11-16T01:42:53.886Z,89.32
2022-11-16T01:45:04.895Z,89.00
2022-11-16T01:46:37.752Z,89.25
2022-11-16T01:48:14.336Z,88.75
2022-11-16T01:49:49.673Z,89.15
2022-11-16T01:51:24.631Z,88.89
2022-11-16T01:53:01.164Z,89.37
2022-11-16T01:54:40.982Z,89.06
2022-11-16T01:56:13.097Z,88.92
2022-11-16T01:57:55.775Z,89.85
2022-11-16T01:59:28.412Z,89.56
2022-11-16T02:01:00.712Z,89.40
2022-11-16T02:02:39.766Z,89.16
2022-11-16T02:04:14.615Z,88.86
2022-11-16T02:06:15.390Z,89.09
2022-11-16T02:08:35.543Z,89.09
2022-11-16T02:10:18.016Z,89.68
2022-11-16T02:12:08.552Z,89.27
2022-11-16T02:13:51.503Z,89.78
2022-11-16T02:15:28.197Z,89.81
2022-11-16T02:17:24.258Z,89.49
2022-11-16T02:19:19.575Z,90.09
2022-11-16T02:21:03.012Z,89.94
2022-11-16T02:22:53.022Z,89.36
2022-11-16T02:24:36.581Z,89.92
2022-11-16T02:26:23.362Z,89.44
2022-11-16T02:28:21.808Z,89.83
2022-11-16T02:29:55.899Z,90.25
2022-11-16T02:31:32.765Z,89.89
2022-11-16T02:33:09.700Z,89.59
2022-11-16T02:34:46.131Z,89.72
2022-11-16T02:36:22.423Z,90.13
2022-11-16T02:37:57.682Z,90.07
2022-11-16T02:39:32.592Z,90.05
2022-11-16T02:41:09.703Z,89.80
2022-11-16T02:42:45.827Z,89.99
2022-11-16T02:44:21.413Z,90.22
2022-11-16T02:46:00.236Z,89.89
2022-11-16T02:47:35.243Z,89.84
2022-11-16T02:49:12.394Z,89.70
2022-11-16T02:50:46.697Z,90.06
2022-11-16T02:52:20.000Z,90.01
2022-11-16T02:54:01.491Z,89.31
2022-11-16T02:55:34.580Z,89.33
2022-11-16T02:57:37.806Z,90.18
2022-11-16T02:59:13.121Z,89.90
2022-11-16T03:00:55.658Z,89.54
2022-11-16T03:02:39.612Z,89.25
2022-11-16T03:04:17.115Z,89.57
2022-11-16T03:05:53.560Z,89.59
2022-11-16T03:07:29.243Z,89.28
2022-11-16T03:09:06.431Z,88.73
2022-11-16T03:10:59.510Z,88.54
2022-11-16T03:12:35.387Z,89.17
2022-11-16T03:14:12.012Z,88.95
2022-11-16T03:15:44.248Z,88.84
2022-11-16T03:17:28.052Z,88.55
2022-11-16T03:19:05.526Z,89.29
2022-11-16T03:20:39.170Z,88.94
2022-11-16T03:22:14.255Z,88.82
2022-11-16T03:23:46.563Z,89.13
2022-11-16T03:25:20.150Z,89.12
2022-11-16T03:27:05.339Z,88.86
2022-11-16T03:28:47.742Z,88.93
2022-11-16T03:30:23.881Z,89.06
2022-11-16T03:32:07.559Z,89.22
2022-11-16T03:33:45.163Z,89.26
2022-11-16T03:35:23.309Z,89.16
2022-11-16T03:36:56.877Z,89.09
2022-11-16T03:38:29.916Z,89.33
2022-11-16T03:40:03.028Z,89.04
2022-11-16T03:41:40.361Z,89.00
2022-11-16T03:43:12.685Z,88.83
2022-11-16T03:44:47.983Z,89.34
2022-11-16T03:46:20.636Z,88.58
2022-11-16T03:47:52.287Z,88.42
2022-11-16T03:49:24.948Z,88.51
2022-11-16T03:50:59.762Z,88.48
2022-11-16T03:52:32.480Z,88.39
2022-11-16T03:54:05.081Z,88.72
2022-11-16T03:55:38.369Z,88.71
2022-11-16T03:57:15.501Z,88.39
2022-11-16T03:58:49.984Z,88.70
2022-11-16T04:00:22.713Z,88.62
2022-11-16T04:01:56.191Z,88.43
2022-11-16T04:03:27.836Z,88.47
2022-11-16T04:05:18.192Z,88.08
2022-11-16T04:07:09.381Z,89.00
2022-11-16T04:08:59.967Z,89.10
2022-11-16T04:10:50.373Z,88.74
2022-11-16T04:12:41.280Z,88.56
2022-11-16T04:14:37.264Z,88.38
2022-11-16T04:16:29.216Z,88.67
2022-11-16T04:18:19.735Z,89.10
2022-11-16T04:20:10.390Z,89.32
2022-11-16T04:22:04.615Z,89.14
2022-11-16T04:23:59.361Z,89.78
2022-11-16T04:25:33.168Z,89.60
2022-11-16T04:27:27.942Z,89.05
2022-11-16T04:28:59.638Z,89.19
2022-11-16T04:30:51.396Z,89.61
2022-11-16T04:32:42.536Z,89.86
2022-11-16T04:34:46.680Z,89.29
2022-11-16T04:36:36.980Z,89.50
2022-11-16T04:38:08.692Z,89.40
2022-11-16T04:39:42.728Z,89.56
2022-11-16T04:41:33.440Z,88.82
2022-11-16T04:43:05.462Z,88.23
2022-11-16T04:44:58.513Z,88.61
2022-11-16T04:46:52.977Z,88.18
2022-11-16T04:48:24.680Z,88.47
2022-11-16T04:49:58.667Z,88.36
2022-11-16T04:51:30.327Z,88.38
2022-11-16T04:53:03.116Z,88.13
2022-11-16T04:54:36.229Z,88.09
2022-11-16T04:56:09.471Z,88.36
2022-11-16T04:57:41.906Z,88.27
2022-11-16T04:59:13.745Z,87.65
2022-11-16T05:00:45.472Z,87.59
2022-11-16T05:02:17.867Z,88.29
2022-11-16T05:03:56.715Z,87.70
2022-11-16T05:05:28.612Z,87.75
2022-11-16T05:07:00.505Z,87.76
2022-11-16T05:08:32.484Z,87.30
2022-11-16T05:10:06.719Z,87.52
2022-11-16T05:11:40.092Z,88.00
2022-11-16T05:13:12.219Z,87.89
2022-11-16T05:14:44.571Z,87.63
2022-11-16T05:16:16.527Z,87.40
2022-11-16T05:17:48.389Z,87.23
2022-11-16T05:19:43.013Z,87.99
2022-11-16T05:21:14.978Z,87.63
2022-11-16T05:22:53.550Z,88.04
2022-11-16T05:24:34.664Z,87.70
2022-11-16T05:26:07.597Z,87.12
2022-11-16T05:27:40.584Z,87.38
2022-11-16T05:29:12.271Z,86.98
2022-11-16T05:30:45.280Z,87.47
2022-11-16T05:32:19.911Z,87.25
2022-11-16T05:33:51.816Z,87.16
2022-11-16T05:35:24.540Z,86.98
2022-11-16T05:36:57.381Z,86.69
2022-11-16T05:38:29.026Z,86.65
2022-11-16T05:40:03.913Z,86.66
2022-11-16T05:41:45.843Z,86.29
2022-11-16T05:43:18.819Z,86.63
2022-11-16T05:45:01.278Z,86.60
2022-11-16T05:46:33.076Z,86.77
2022-11-16T05:48:05.977Z,86.45
2022-11-16T05:49:37.741Z,86.30
2022-11-16T05:51:09.445Z,85.85
2022-11-16T05:52:41.196Z,85.86
2022-11-16T05:54:18.907Z,86.34
2022-11-16T05:55:50.772Z,85.70
2022-11-16T05:57:23.678Z,86.43
2022-11-16T05:58:57.263Z,86.13
2022-11-16T06:00:30.026Z,85.49
2022-11-16T06:02:04.723Z,86.27
2022-11-16T06:03:38.420Z,85.90
2022-11-16T06:05:10.082Z,86.43
2022-11-16T06:06:41.859Z,86.52
2022-11-16T06:08:13.577Z,85.90
2022-11-16T06:09:45.309Z,85.53
2022-11-16T06:11:23.014Z,85.85
2022-11-16T06:12:54.641Z,85.60
2022-11-16T06:14:27.948Z,85.44
2022-11-16T06:16:00.307Z,85.16
2022-11-16T06:17:33.813Z,85.81
2022-11-16T06:19:05.910Z,84.73
2022-11-16T06:20:39.278Z,85.38
2022-11-16T06:22:12.041Z,84.57
2022-11-16T06:23:44.142Z,84.90
2022-11-16T06:25:15.877Z,84.96
2022-11-16T06:26:49.135Z,84.75
2022-11-16T06:28:20.931Z,85.26
2022-11-16T06:29:54.271Z,85.78
2022-11-16T06:31:26.468Z,85.64
2022-11-16T06:32:59.457Z,85.39
2022-11-16T06:34:31.234Z,84.99
2022-11-16T06:36:03.463Z,85.67
2022-11-16T06:37:35.904Z,85.48
2022-11-16T06:39:08.134Z,85.03
2022-11-16T06:40:42.339Z,85.50
2022-11-16T06:42:14.202Z,85.28
2022-11-16T06:43:46.200Z,84.97
2022-11-16T06:45:20.919Z,84.91
2022-11-16T06:46:56.727Z,84.85
2022-11-16T06:48:30.973Z,84.49
2022-11-16T06:50:03.627Z,84.41
2022-11-16T06:51:36.555Z,84.13
2022-11-16T06:53:08.877Z,84.15
2022-11-16T06:54:41.632Z,84.57
2022-11-16T06:56:15.067Z,84.12
2022-11-16T06:57:55.516Z,84.20
2022-11-16T06:59:27.612Z,83.72
2022-11-16T07:01:06.946Z,83.78
2022-11-16T07:02:40.049Z,83.43
2022-11-16T07:04:15.449Z,84.26
2022-11-16T07:05:53.257Z,83.18
2022-11-16T07:07:26.194Z,83.21
2022-11-16T07:08:58.990Z,83.73
2022-11-16T07:10:34.905Z,83.84
2022-11-16T07:12:07.020Z,83.54
2022-11-16T07:13:42.008Z,83.66
2022-11-16T07:15:14.005Z,82.87
2022-11-16T07:16:49.390Z,83.20
2022-11-16T07:18:21.108Z,83.69
2022-11-16T07:19:52.776Z,83.39
2022-11-16T07:21:25.317Z,83.27
2022-11-16T07:23:02.978Z,83.81
2022-11-16T07:24:34.808Z,83.05
2022-11-16T07:26:08.275Z,83.43
2022-11-16T07:27:45.772Z,83.07
2022-11-16T07:29:17.528Z,83.16
2022-11-16T07:31:10.486Z,82.46
2022-11-16T07:32:44.019Z,82.44
2022-11-16T07:34:24.995Z,83.19
2022-11-16T07:36:09.884Z,82.58
2022-11-16T07:37:42.101Z,82.74
2022-11-16T07:39:13.920Z,82.38
2022-11-16T07:40:46.457Z,82.69
2022-11-16T07:42:21.203Z,82.61
2022-11-16T07:44:10.881Z,82.71
2022-11-16T07:45:45.363Z,82.32
2022-11-16T07:47:17.067Z,82.09
2022-11-16T07:48:50.035Z,81.88
2022-11-16T07:50:46.875Z,81.46
2022-11-16T07:52:20.076Z,81.37
2022-11-16T07:53:59.488Z,81.18
2022-11-16T07:55:32.214Z,81.89
2022-11-16T07:57:05.894Z,81.52
2022-11-16T07:58:38.755Z,81.58
2022-11-16T08:00:11.034Z,81.86
2022-11-16T08:01:46.840Z,81.23
2022-11-16T08:03:24.362Z,81.35
2022-11-16T08:05:00.612Z,81.71
2022-11-16T08:06:33.304Z,81.48
2022-11-16T08:08:05.341Z,80.70
2022-11-16T08:09:40.732Z,80.74
2022-11-16T08:11:15.782Z,81.25
2022-11-16T08:12:47.439Z,81.33
2022-11-16T08:14:19.264Z,80.71
2022-11-16T08:15:53.093Z,80.77
2022-11-16T08:17:24.774Z,81.23
2022-11-16T08:18:57.333Z,80.17
2022-11-16T08:20:31.324Z,80.56
2022-11-16T08:22:03.758Z,80.08
2022-11-16T08:23:37.513Z,80.33
2022-11-16T08:25:09.624Z,80.22
2022-11-16T08:26:42.864Z,80.03
2022-11-16T08:28:17.455Z,79.86
2022-11-16T08:29:49.144Z,79.05
2022-11-16T08:31:24.205Z,79.96
2022-11-16T08:32:59.104Z,79.09
2022-11-16T08:34:30.829Z,78.54
2022-11-16T08:36:13.651Z,78.69
2022-11-16T08:37:45.781Z,78.33
2022-11-16T08:39:17.863Z,77.89
2022-11-16T08:40:50.827Z,77.52
2022-11-16T08:42:22.624Z,77.55
2022-11-16T08:43:54.656Z,77.88
2022-11-16T08:45:27.421Z,77.03
2022-11-16T08:47:01.396Z,77.46
2022-11-16T08:48:41.847Z,77.61
2022-11-16T08:50:15.364Z,77.27
2022-11-16T08:51:49.031Z,76.93
2022-11-16T08:53:20.753Z,77.32
2022-11-16T08:54:53.238Z,76.59
2022-11-16T08:56:30.109Z,76.63
2022-11-16T08:58:02.097Z,76.42
2022-11-16T08:59:35.428Z,76.56
2022-11-16T09:01:14.858Z,75.72
2022-11-16T09:02:46.545Z,75.58
2022-11-16T09:04:18.706Z,75.52
2022-11-16T09:05:50.339Z,75.75
2022-11-16T09:07:23.580Z,75.88
2022-11-16T09:08:56.005Z,74.85
2022-11-16T09:10:27.636Z,74.81
2022-11-16T09:11:59.304Z,75.36
2022-11-16T09:13:31.189Z,74.26
2022-11-16T09:15:03.854Z,74.45
2022-11-16T09:16:35.499Z,74.17
2022-11-16T09:18:07.152Z,73.76
2022-11-16T09:19:38.824Z,72.98
2022-11-16T09:21:10.437Z,73.25
2022-11-16T09:22:43.432Z,73.30
2022-11-16T09:24:15.060Z,73.36
2022-11-16T09:25:48.380Z,73.20
2022-11-16T09:27:20.079Z,72.35
2022-11-16T09:28:55.167Z,71.32
2022-11-16T09:30:26.847Z,70.79
2022-11-16T09:31:59.900Z,70.10
2022-11-16T09:33:33.033Z,70.30
2022-11-16T09:35:05.480Z,69.59
2022-11-16T09:36:37.133Z,70.11
2022-11-16T09:38:10.135Z,70.29
2022-11-16T09:39:42.391Z,69.85
2022-11-16T09:41:35.443Z,69.46
2022-11-16T09:43:17.024Z,69.35
2022-11-16T09:44:59.463Z,70.06
2022-11-16T09:46:35.665Z,69.59
2022-11-16T09:48:12.305Z,69.76
2022-11-16T09:49:48.905Z,68.92
2022-11-16T09:51:24.874Z,67.18
2022-11-16T09:53:04.902Z,66.63
2022-11-16T09:54:39.694Z,66.33
2022-11-16T09:56:21.909Z,66.57
2022-11-16T09:57:58.394Z,66.17
2022-11-16T09:59:38.300Z,65.45
2022-11-16T10:01:22.317Z,64.42
2022-11-16T10:03:01.427Z,64.48
2022-11-16T10:04:38.560Z,65.18
2022-11-16T10:06:20.878Z,65.17
2022-11-16T10:07:58.942Z,65.09
2022-11-16T10:09:35.219Z,64.90
2022-11-16T10:11:34.216Z,65.25
2022-11-16T10:13:20.971Z,64.92
2022-11-16T10:15:36.137Z,64.55
2022-11-16T10:17:17.533Z,65.47
2022-11-16T10:18:56.041Z,65.46
2022-11-16T10:20:46.424Z,64.20
2022-11-16T10:22:34.099Z,64.85
2022-11-16T10:24:33.984Z,64.97
2022-11-16T10:26:17.856Z,65.24
2022-11-16T10:28:13.244Z,65.09
2022-11-16T10:29:53.107Z,65.32
2022-11-16T10:31:39.384Z,65.36
2022-11-16T10:33:16.892Z,65.27
2022-11-16T10:34:52.315Z,65.25
2022-11-16T10:36:27.398Z,65.46
2022-11-16T10:38:02.608Z,65.58
2022-11-16T10:39:36.580Z,65.10
2022-11-16T10:41:19.748Z,65.18
2022-11-16T10:43:00.296Z,65.40
2022-11-16T10:44:36.262Z,64.80
2022-11-16T10:46:15.454Z,65.08
2022-11-16T10:47:51.902Z,64.51
2022-11-16T10:49:32.335Z,63.49
2022-11-16T10:51:05.212Z,63.97
2022-11-16T10:52:36.886Z,63.59
2022-11-16T10:54:13.180Z,63.68
2022-11-16T10:55:44.851Z,64.04
2022-11-16T10:57:17.990Z,63.98
2022-11-16T10:58:55.763Z,63.86
2022-11-16T11:00:44.141Z,63.22
2022-11-16T11:02:31.955Z,63.34
2022-11-16T11:04:15.463Z,63.24
2022-11-16T11:05:52.347Z,63.93
2022-11-16T11:07:30.787Z,63.77
2022-11-16T11:09:14.806Z,63.08
2022-11-16T11:10:58.368Z,63.38
2022-11-16T11:12:40.526Z,63.79
2022-11-16T11:14:15.385Z,63.28
2022-11-16T11:15:48.060Z,63.38
2022-11-16T11:17:19.672Z,63.15
2022-11-16T11:18:51.453Z,63.21
2022-11-16T11:20:24.398Z,63.37
2022-11-16T11:21:57.296Z,63.50
2022-11-16T11:23:29.023Z,63.42
2022-11-16T11:25:03.464Z,62.94
2022-11-16T11:26:38.568Z,62.79
2022-11-16T11:28:21.036Z,62.59
2022-11-16T11:29:55.351Z,62.87
2022-11-16T11:31:34.067Z,63.01
2022-11-16T11:33:11.333Z,63.14
2022-11-16T11:34:47.207Z,63.34
2022-11-16T11:36:21.341Z,63.64
2022-11-16T11:37:55.511Z,63.53
2022-11-16T11:39:32.713Z,63.49
2022-11-16T11:41:07.312Z,63.29
2022-11-16T11:42:50.941Z,63.48
2022-11-16T11:44:32.090Z,63.41
2022-11-16T11:46:09.435Z,63.45
2022-11-16T11:47:58.082Z,63.40
2022-11-16T11:49:36.473Z,63.06
2022-11-16T11:51:15.613Z,62.65
2022-11-16T11:52:58.766Z,62.77
2022-11-16T11:54:35.964Z,63.57
2022-11-16T11:56:10.357Z,63.67
2022-11-16T11:57:45.557Z,63.83
2022-11-16T11:59:21.675Z,63.65
2022-11-16T12:01:04.019Z,63.08
2022-11-16T12:02:50.648Z,63.27
2022-11-16T12:04:49.342Z,63.03
2022-11-16T12:06:31.396Z,63.29
2022-11-16T12:08:20.304Z,63.60
2022-11-16T12:09:57.883Z,63.63
2022-11-16T12:11:40.054Z,63.04
2022-11-16T12:13:33.079Z,63.16
2022-11-16T12:15:26.466Z,63.11
2022-11-16T12:17:07.336Z,63.02
2022-11-16T12:18:53.159Z,63.25
2022-11-16T12:20:32.663Z,63.57
2022-11-16T12:22:14.084Z,63.73
2022-11-16T12:24:00.783Z,63.33
2022-11-16T12:25:46.034Z,63.10
2022-11-16T12:27:28.555Z,63.37
2022-11-16T12:29:13.088Z,62.86
2022-11-16T12:30:59.195Z,61.92
2022-11-16T12:32:51.082Z,61.42
2022-11-16T12:34:33.772Z,62.27
2022-11-16T12:36:14.925Z,62.46
2022-11-16T12:38:00.538Z,61.71
2022-11-16T12:39:35.742Z,62.21
2022-11-16T12:41:31.406Z,61.46
2022-11-16T12:43:11.269Z,61.59
2022-11-16T12:45:02.048Z,61.28
2022-11-16T12:46:45.482Z,61.60
2022-11-16T12:48:51.943Z,61.42
2022-11-16T12:50:42.164Z,60.40
2022-11-16T12:52:32.909Z,60.83
2022-11-16T12:54:38.642Z,60.88
2022-11-16T12:56:21.812Z,60.49
2022-11-16T12:58:06.412Z,60.44
2022-11-16T12:59:57.539Z,59.86
2022-11-16T13:01:36.327Z,60.00
2022-11-16T13:03:17.372Z,60.06
2022-11-16T13:04:57.501Z,60.09
2022-11-16T13:06:33.562Z,60.03
2022-11-16T13:08:10.638Z,59.83
2022-11-16T13:09:45.959Z,59.94
2022-11-16T13:11:22.755Z,60.07
2022-11-16T13:13:29.794Z,59.89
2022-11-16T13:14:56.026Z,60.27
2022-11-16T13:16:28.955Z,59.89
2022-11-16T13:18:03.194Z,59.91
2022-11-16T13:19:39.775Z,59.77
2022-11-16T13:21:22.654Z,59.43
2022-11-16T13:23:01.806Z,59.45
2022-11-16T13:24:44.223Z,59.62
2022-11-16T13:26:23.409Z,59.65
2022-11-16T13:28:00.569Z,59.75
2022-11-16T13:29:37.633Z,59.07
2022-11-16T13:31:14.396Z,58.97
2022-11-16T13:32:58.496Z,58.63
2022-11-16T13:34:32.840Z,59.01
2022-11-16T13:36:43.530Z,58.44
2022-11-16T13:38:52.511Z,57.77
2022-11-16T13:40:27.426Z,58.95
2022-11-16T13:42:07.533Z,58.91
2022-11-16T13:43:48.010Z,58.87
2022-11-16T13:45:21.996Z,59.09
2022-11-16T13:46:57.175Z,59.62
2022-11-16T13:48:34.366Z,59.61
2022-11-16T13:50:17.736Z,59.49
2022-11-16T13:51:56.490Z,59.17
2022-11-16T13:55:30.044Z,59.11
2022-11-16T13:57:04.869Z,58.99
2022-11-16T13:58:43.892Z,59.44
2022-11-16T14:00:22.644Z,59.50
2022-11-16T14:01:56.792Z,59.66
2022-11-16T14:03:39.417Z,59.56
2022-11-16T14:05:15.815Z,59.46
2022-11-16T14:06:59.427Z,59.66
2022-11-16T14:08:51.193Z,59.73
2022-11-16T14:11:01.648Z,59.84
2022-11-16T14:12:51.630Z,59.77
2022-11-16T14:14:37.992Z,59.77
2022-11-16T14:16:41.649Z,60.11
2022-11-16T14:18:36.901Z,60.34
2022-11-16T14:20:12.620Z,60.54
2022-11-16T14:21:53.526Z,60.29
2022-11-16T14:23:48.922Z,60.16
2022-11-16T14:25:30.067Z,60.50
2022-11-16T14:27:13.237Z,60.96
2022-11-16T14:29:15.284Z,60.74
2022-11-16T14:30:58.526Z,61.06
2022-11-16T14:32:37.003Z,60.95
2022-11-16T14:34:17.354Z,61.19
2022-11-16T14:35:53.703Z,61.10
2022-11-16T14:37:33.044Z,61.29
2022-11-16T14:39:31.880Z,61.48
2022-11-16T14:41:06.481Z,61.54
2022-11-16T14:43:14.850Z,61.81
2022-11-16T14:44:39.825Z,61.75
2022-11-16T14:46:21.915Z,61.73
2022-11-16T14:47:58.675Z,61.83
2022-11-16T14:49:34.599Z,61.70
2022-11-16T14:51:09.973Z,62.02
2022-11-16T14:52:45.334Z,62.13
2022-11-16T14:54:25.763Z,62.28
2022-11-16T14:56:07.522Z,62.21
2022-11-16T14:57:39.260Z,62.33
2022-11-16T14:59:17.675Z,62.41
2022-11-16T15:00:54.025Z,62.37
2022-11-16T15:02:27.546Z,62.31
2022-11-16T15:04:02.478Z,62.43
2022-11-16T15:05:36.500Z,62.38
2022-11-16T15:07:08.493Z,62.51
2022-11-16T15:08:45.236Z,62.50
2022-11-16T15:10:19.733Z,62.32
2022-11-16T15:12:10.875Z,62.39
2022-11-16T15:13:45.602Z,62.54
2022-11-16T15:15:22.292Z,62.61
2022-11-16T15:16:56.095Z,62.53
2022-11-16T15:18:27.778Z,62.53
2022-11-16T15:20:01.254Z,62.66
2022-11-16T15:21:32.837Z,62.70
2022-11-16T15:23:13.034Z,62.76
2022-11-16T15:24:53.143Z,62.82
2022-11-16T15:26:24.905Z,62.85
2022-11-16T15:27:59.882Z,63.17
2022-11-16T15:29:31.816Z,63.23
2022-11-16T15:31:07.034Z,63.17
2022-11-16T15:32:41.352Z,63.34
2022-11-16T15:34:14.152Z,63.85
2022-11-16T15:35:47.179Z,63.66
2022-11-16T15:37:27.310Z,63.85
2022-11-16T15:39:00.565Z,63.84
2022-11-16T15:40:34.192Z,63.98
2022-11-16T15:42:06.272Z,64.11
2022-11-16T15:43:49.689Z,64.12
2022-11-16T15:45:33.072Z,64.27
2022-11-16T15:47:06.235Z,64.70
2022-11-16T15:48:39.047Z,64.50
2022-11-16T15:50:16.610Z,64.80
2022-11-16T15:51:48.231Z,64.63
2022-11-16T15:53:34.836Z,64.67
2022-11-16T15:55:19.675Z,64.71
2022-11-16T15:56:54.927Z,64.88
2022-11-16T15:58:29.266Z,64.87
2022-11-16T16:00:00.927Z,65.24
2022-11-16T16:01:42.115Z,65.00
2022-11-16T16:03:21.828Z,65.07
2022-11-16T16:04:53.488Z,65.21
2022-11-16T16:06:46.400Z,65.65
2022-11-16T16:08:30.476Z,65.68
2022-11-16T16:10:13.413Z,65.62
2022-11-16T16:11:45.220Z,65.40
2022-11-16T16:13:25.115Z,66.06
2022-11-16T16:15:22.699Z,65.74
2022-11-16T16:16:57.380Z,65.51
2022-11-16T16:18:40.601Z,65.86
2022-11-16T16:20:18.485Z,65.75
2022-11-16T16:21:50.958Z,66.10
2022-11-16T16:23:25.460Z,66.02
2022-11-16T16:24:57.346Z,66.23
2022-11-16T16:26:28.981Z,65.91
2022-11-16T16:28:00.643Z,66.33
2022-11-16T16:29:32.769Z,66.39
2022-11-16T16:31:04.500Z,66.83
2022-11-16T16:32:37.957Z,66.90
2022-11-16T16:34:12.580Z,67.15
2022-11-16T16:35:45.484Z,67.11
2022-11-16T16:37:17.363Z,66.97
2022-11-16T16:38:49.027Z,67.00
2022-11-16T16:40:20.640Z,67.30
2022-11-16T16:41:52.407Z,67.57
2022-11-16T16:43:24.027Z,67.69
2022-11-16T16:44:59.165Z,67.12
2022-11-16T16:46:30.780Z,67.22
2022-11-16T16:48:04.001Z,67.58
2022-11-16T16:49:35.822Z,67.59
2022-11-16T16:51:11.447Z,67.13
2022-11-16T16:52:43.055Z,67.14
2022-11-16T16:54:17.841Z,67.23
2022-11-16T16:55:49.819Z,67.46
2022-11-16T16:57:21.540Z,67.52
2022-11-16T16:58:53.249Z,67.83
2022-11-16T17:00:25.829Z,67.26
2022-11-16T17:01:57.770Z,68.20
2022-11-16T17:03:31.840Z,68.22
2022-11-16T17:05:04.241Z,67.87
2022-11-16T17:06:35.898Z,68.29
2022-11-16T17:08:07.625Z,68.00
2022-11-16T17:09:39.243Z,68.90
2022-11-16T17:11:12.275Z,68.57
2022-11-16T17:12:44.204Z,68.47
2022-11-16T17:14:15.881Z,68.83
2022-11-16T17:15:47.501Z,68.58
2022-11-16T17:17:19.543Z,68.57
2022-11-16T17:18:55.900Z,68.48
2022-11-16T17:20:27.657Z,68.36
2022-11-16T17:21:59.939Z,68.57
2022-11-16T17:23:31.918Z,69.49
2022-11-16T17:25:04.123Z,69.00
2022-11-16T17:26:35.769Z,69.39
2022-11-16T17:28:07.374Z,69.82
2022-11-16T17:29:39.025Z,69.79
2022-11-16T17:31:12.210Z,69.48
2022-11-16T17:32:43.865Z,69.64
2022-11-16T17:34:16.872Z,69.62
2022-11-16T17:35:54.978Z,68.78
2022-11-16T17:37:26.755Z,69.06
2022-11-16T17:38:58.517Z,69.41
2022-11-16T17:40:30.354Z,69.39
2022-11-16T17:42:01.992Z,69.44
2022-11-16T17:43:34.214Z,69.18
2022-11-16T17:45:07.306Z,68.79
2022-11-16T17:46:39.003Z,69.26
2022-11-16T17:48:11.604Z,69.07
2022-11-16T17:49:46.038Z,68.54
2022-11-16T17:51:19.366Z,68.98
2022-11-16T17:52:51.018Z,68.86
2022-11-16T17:54:22.633Z,69.02
2022-11-16T17:55:54.537Z,68.73
2022-11-16T17:57:26.227Z,68.74
2022-11-16T17:59:01.196Z,69.80
2022-11-16T18:00:32.841Z,69.54
2022-11-16T18:02:04.551Z,69.32
2022-11-16T18:03:37.197Z,69.50
2022-11-16T18:05:10.547Z,69.89
2022-11-16T18:06:42.134Z,70.14
2022-11-16T18:08:13.762Z,69.42
2022-11-16T18:09:45.351Z,69.66
2022-11-16T18:11:18.666Z,70.13
2022-11-16T18:12:50.359Z,69.63
2022-11-16T18:14:21.989Z,69.98
2022-11-16T18:15:53.583Z,69.87
2022-11-16T18:17:25.509Z,69.76
2022-11-16T18:18:58.773Z,70.51
2022-11-16T18:20:36.295Z,70.35
2022-11-16T18:22:07.945Z,70.85
2022-11-16T18:23:40.018Z,70.61
2022-11-16T18:25:11.665Z,71.09
2022-11-16T18:26:43.268Z,71.20
2022-11-16T18:28:17.422Z,71.41
2022-11-16T18:29:49.053Z,70.77
2022-11-16T18:31:23.710Z,71.18
2022-11-16T18:32:55.630Z,70.90
2022-11-16T18:34:27.318Z,70.97
2022-11-16T18:36:00.344Z,71.82
2022-11-16T18:37:31.980Z,72.40
2022-11-16T18:39:03.762Z,71.95
2022-11-16T18:40:35.407Z,71.81
2022-11-16T18:42:07.462Z,71.47
2022-11-16T18:43:39.435Z,71.87
2022-11-16T18:45:11.103Z,72.42
2022-11-16T18:46:42.803Z,72.19
2022-11-16T18:48:14.412Z,71.96
2022-11-16T18:49:46.162Z,72.24
2022-11-16T18:51:20.416Z,72.61
2022-11-16T18:52:52.222Z,72.60
2022-11-16T18:54:23.922Z,72.78
2022-11-16T18:55:58.006Z,72.86
2022-11-16T18:57:30.169Z,73.33
2022-11-16T18:59:01.921Z,73.10
2022-11-16T19:00:33.675Z,73.28
2022-11-16T19:02:05.357Z,72.80
2022-11-16T19:03:37.325Z,73.58
2022-11-16T19:05:09.414Z,72.95
2022-11-16T19:06:42.452Z,73.53
2022-11-16T19:08:14.469Z,73.53
2022-11-16T19:09:46.095Z,72.94
2022-11-16T19:11:18.120Z,73.76
2022-11-16T19:12:49.774Z,72.65
2022-11-16T19:14:21.464Z,73.17
2022-11-16T19:15:55.097Z,73.70
2022-11-16T19:17:27.938Z,72.91
2022-11-16T19:19:01.418Z,73.01
2022-11-16T19:20:35.912Z,72.79
2022-11-16T19:22:08.866Z,72.88
2022-11-16T19:23:45.967Z,73.63
2022-11-16T19:25:17.743Z,73.16
2022-11-16T19:26:49.426Z,72.88
2022-11-16T19:28:21.192Z,73.07
2022-11-16T19:29:53.029Z,73.30
2022-11-16T19:31:26.365Z,73.30
2022-11-16T19:32:59.296Z,72.96
2022-11-16T19:34:33.420Z,72.47
2022-11-16T19:36:07.019Z,72.73
2022-11-16T19:37:39.997Z,72.73
2022-11-16T19:39:11.634Z,72.41
2022-11-16T19:40:43.292Z,73.18
2022-11-16T19:42:15.186Z,72.90
2022-11-16T19:43:47.087Z,73.11
2022-11-16T19:45:18.719Z,73.37
2022-11-16T19:46:50.407Z,72.83
2022-11-16T19:48:22.056Z,72.97
2022-11-16T19:49:53.653Z,73.00
2022-11-16T19:51:27.698Z,72.57
2022-11-16T19:53:00.690Z,73.32
2022-11-16T19:54:32.434Z,72.96
2022-11-16T19:56:04.913Z,73.29
2022-11-16T19:57:36.653Z,73.07
2022-11-16T19:59:08.512Z,73.56
2022-11-16T20:00:40.223Z,73.10
2022-11-16T20:02:11.861Z,73.52
2022-11-16T20:03:44.031Z,73.64
2022-11-16T20:05:15.623Z,73.56
2022-11-16T20:06:47.590Z,73.52
2022-11-16T20:08:20.667Z,73.84
2022-11-16T20:09:53.580Z,73.63
2022-11-16T20:11:27.537Z,73.68
2022-11-16T20:12:59.238Z,73.63
2022-11-16T20:14:31.051Z,72.77
2022-11-16T20:16:02.806Z,73.38
2022-11-16T20:17:34.470Z,73.71
2022-11-16T20:19:07.416Z,73.33
2022-11-16T20:20:39.153Z,72.70
2022-11-16T20:22:11.366Z,73.21
2022-11-16T20:23:45.451Z,73.81
2022-11-16T20:25:17.093Z,73.50
2022-11-16T20:26:49.125Z,73.66
2022-11-16T20:28:20.749Z,74.21
2022-11-16T20:29:52.357Z,73.37
2022-11-16T20:31:25.203Z,73.81
2022-11-16T20:32:56.917Z,74.18
2022-11-16T20:34:29.089Z,73.70
2022-11-16T20:36:02.201Z,73.75
2022-11-16T20:37:36.266Z,73.83
2022-11-16T20:39:13.864Z,73.79
2022-11-16T20:40:45.482Z,74.00
2022-11-16T20:42:17.101Z,73.13
2022-11-16T20:43:51.120Z,73.88
2022-11-16T20:45:22.761Z,73.75
2022-11-16T20:46:54.417Z,73.68